Time;durP1;ratioP1;P1;durP2;ratioP2;P2;SDS_P1;SDS_P2;PMS_P1;PMS_P2;Temp;Humidity;BMP_temperature;BMP_pressure;BME280_temperature;BME280_humidity;BME280_pressure;Samples;Min_cycle;Max_cycle;Signal;HPM_P1;HPM_P2
2021/08/07 00:00:05;;;;;;;;;;;15.80;99.90;;;;;;5033410;28;19917;-65
2021/08/07 00:02:38;;;;;;;;;;;15.80;99.90;;;;;;5032935;28;19917;-63
2021/08/07 00:05:04;;;;;;;;;;;15.80;99.90;;;;;;5033237;28;20020;-64
2021/08/07 00:07:29;;;;;;;;;;;15.80;99.90;;;;;;5032953;28;20014;-64
2021/08/07 00:09:55;;;;;;;;;;;15.80;99.90;;;;;;5031583;28;19956;-64
2021/08/07 00:12:21;;;;;;;;;;;15.70;99.90;;;;;;5033240;28;19924;-64
2021/08/07 00:14:46;;;;;;;;;;;15.70;99.90;;;;;;5033057;28;19928;-64
2021/08/07 00:17:12;;;;;;;;;;;15.70;99.90;;;;;;5032359;28;19923;-63
2021/08/07 00:19:38;;;;;;;;;;;15.60;99.90;;;;;;5032969;28;19924;-64
2021/08/07 00:22:03;;;;;;;;;;;15.60;99.90;;;;;;5031339;28;19948;-64
2021/08/07 00:24:29;;;;;;;;;;;15.60;99.90;;;;;;5031586;28;19924;-64
2021/08/07 00:26:54;;;;;;;;;;;15.50;99.90;;;;;;5031986;28;19921;-63
2021/08/07 00:29:20;;;;;;;;;;;15.50;99.90;;;;;;5032439;28;19924;-65
2021/08/07 00:31:46;;;;;;;;;;;15.50;99.90;;;;;;5031448;28;19944;-64
2021/08/07 00:34:13;;;;;;;;;;;15.50;99.90;;;;;;5031431;28;19967;-65
2021/08/07 00:36:39;;;;;;;;;;;15.40;99.90;;;;;;5030766;28;19921;-65
2021/08/07 00:39:05;;;;;;;;;;;15.40;99.90;;;;;;5014891;28;20262;-65
2021/08/07 00:41:31;;;;;;;;;;;15.30;99.90;;;;;;5032646;28;20433;-64
2021/08/07 00:43:59;;;;;;;;;;;15.30;99.90;;;;;;5031163;28;19918;-64
2021/08/07 00:46:31;;;;;;;;;;;15.30;99.90;;;;;;5031208;28;20427;-64
2021/08/07 00:48:57;;;;;;;;;;;15.20;99.90;;;;;;5014050;28;20192;-64
2021/08/07 00:51:24;;;;;;;;;;;15.20;99.90;;;;;;5031244;28;19924;-63
2021/08/07 00:53:53;;;;;;;;;;;15.20;99.90;;;;;;5030656;28;20280;-64
2021/08/07 00:56:23;;;;;;;;;;;15.20;99.90;;;;;;5015706;28;19925;-72
2021/08/07 00:58:58;;;;;;;;;;;15.20;99.90;;;;;;5030698;28;19917;-70
2021/08/07 01:01:25;;;;;;;;;;;15.20;99.90;;;;;;5031815;28;20952;-71
2021/08/07 01:03:53;;;;;;;;;;;15.10;99.90;;;;;;5031020;28;19995;-72
2021/08/07 01:06:24;;;;;;;;;;;15.10;99.90;;;;;;5031425;28;19917;-72
2021/08/07 01:09:11;;;;;;;;;;;15.10;99.90;;;;;;5032963;28;19921;-72
2021/08/07 01:11:45;;;;;;;;;;;15.10;99.90;;;;;;5016741;28;19917;-72
2021/08/07 01:14:14;;;;;;;;;;;15.00;99.90;;;;;;5032612;28;19921;-72
2021/08/07 01:16:42;;;;;;;;;;;15.00;99.90;;;;;;5031921;28;19924;-71
2021/08/07 01:19:14;;;;;;;;;;;15.00;99.90;;;;;;5030721;28;20020;-71
2021/08/07 01:21:50;;;;;;;;;;;15.00;99.90;;;;;;5030207;28;19932;-71
2021/08/07 01:24:23;;;;;;;;;;;15.00;99.90;;;;;;5030583;28;19918;-72
2021/08/07 01:26:57;;;;;;;;;;;14.90;99.90;;;;;;5031260;28;19965;-71
2021/08/07 01:29:25;;;;;;;;;;;15.00;99.90;;;;;;5030573;28;19917;-71
2021/08/07 01:32:03;;;;;;;;;;;15.00;99.90;;;;;;5030103;28;19923;-72
2021/08/07 01:34:39;;;;;;;;;;;14.90;99.90;;;;;;5030646;28;19925;-71
2021/08/07 01:37:06;;;;;;;;;;;14.90;99.90;;;;;;5028896;28;19917;-71
2021/08/07 01:39:49;;;;;;;;;;;14.90;99.90;;;;;;5030469;28;19949;-71
2021/08/07 01:42:23;;;;;;;;;;;14.80;99.90;;;;;;5030183;28;19917;-71
2021/08/07 01:44:49;;;;;;;;;;;14.80;99.90;;;;;;5031558;28;20412;-71
2021/08/07 01:47:28;;;;;;;;;;;14.80;99.90;;;;;;5029967;28;19974;-71
2021/08/07 01:50:12;;;;;;;;;;;14.80;99.90;;;;;;5030199;28;19944;-72
2021/08/07 01:52:42;;;;;;;;;;;14.70;99.90;;;;;;5029871;28;19917;-72
2021/08/07 01:55:23;;;;;;;;;;;14.70;99.90;;;;;;5030247;28;19922;-72
2021/08/07 01:57:54;;;;;;;;;;;14.60;99.90;;;;;;5029570;28;20021;-70
2021/08/07 02:00:21;;;;;;;;;;;14.70;99.90;;;;;;5030179;28;20380;-71
2021/08/07 02:02:50;;;;;;;;;;;14.70;99.90;;;;;;5029698;28;19959;-72
2021/08/07 02:05:24;;;;;;;;;;;14.60;99.90;;;;;;5014800;28;19929;-72
2021/08/07 02:07:53;;;;;;;;;;;14.60;99.90;;;;;;5013953;28;19925;-71
2021/08/07 02:10:22;;;;;;;;;;;14.60;99.90;;;;;;5029859;28;19913;-72
2021/08/07 02:12:48;;;;;;;;;;;14.60;99.90;;;;;;5031435;28;19918;-72
2021/08/07 02:15:19;;;;;;;;;;;14.50;99.90;;;;;;5013631;28;19975;-72
2021/08/07 02:17:46;;;;;;;;;;;14.50;99.90;;;;;;5029823;28;19917;-72
2021/08/07 02:20:14;;;;;;;;;;;14.50;99.90;;;;;;5030032;28;20100;-71
2021/08/07 02:22:41;;;;;;;;;;;14.50;99.90;;;;;;5031059;28;19918;-72
2021/08/07 02:25:06;;;;;;;;;;;14.50;99.90;;;;;;5029851;28;19917;-71
2021/08/07 02:27:44;;;;;;;;;;;14.50;99.90;;;;;;5029185;28;19921;-72
2021/08/07 02:30:11;;;;;;;;;;;14.60;99.90;;;;;;5030195;28;19986;-70
2021/08/07 02:32:43;;;;;;;;;;;14.60;99.90;;;;;;5029420;28;20012;-72
2021/08/07 02:35:10;;;;;;;;;;;14.60;99.90;;;;;;5013406;28;19924;-71
2021/08/07 02:37:36;;;;;;;;;;;14.70;99.90;;;;;;5029107;28;19914;-72
2021/08/07 02:40:04;;;;;;;;;;;14.70;99.90;;;;;;5029761;28;19924;-71
2021/08/07 02:42:33;;;;;;;;;;;14.70;99.90;;;;;;5029960;28;19921;-72
2021/08/07 02:44:59;;;;;;;;;;;14.70;99.90;;;;;;5029239;28;19917;-72
2021/08/07 02:47:26;;;;;;;;;;;14.70;99.90;;;;;;5029418;28;20015;-73
2021/08/07 02:49:57;;;;;;;;;;;14.70;99.90;;;;;;5016672;28;20012;-72
2021/08/07 02:52:23;;;;;;;;;;;14.70;99.90;;;;;;5032991;28;19956;-70
2021/08/07 02:54:50;;;;;;;;;;;14.70;99.90;;;;;;5033208;28;19928;-71
2021/08/07 02:57:16;;;;;;;;;;;14.70;99.90;;;;;;5032577;28;19920;-72
2021/08/07 02:59:44;;;;;;;;;;;14.70;99.90;;;;;;5016986;28;19949;-72
2021/08/07 03:02:10;;;;;;;;;;;14.70;99.90;;;;;;5033192;28;19917;-71
2021/08/07 03:04:39;;;;;;;;;;;14.60;99.90;;;;;;5032612;28;19921;-71
2021/08/07 03:07:05;;;;;;;;;;;14.60;99.90;;;;;;5032789;28;19921;-71
2021/08/07 03:09:32;;;;;;;;;;;14.60;99.90;;;;;;5032670;28;20384;-70
2021/08/07 03:11:57;;;;;;;;;;;14.60;99.90;;;;;;5034366;28;19917;-72
2021/08/07 03:14:23;;;;;;;;;;;14.70;99.90;;;;;;5032939;28;19921;-70
2021/08/07 03:16:48;;;;;;;;;;;14.70;99.90;;;;;;5032200;28;20480;-72
2021/08/07 03:19:18;;;;;;;;;;;14.80;99.90;;;;;;5033203;28;19925;-72
2021/08/07 03:21:47;;;;;;;;;;;14.80;99.90;;;;;;5032398;28;20413;-70
2021/08/07 03:24:13;;;;;;;;;;;14.70;99.90;;;;;;5016265;28;19913;-71
2021/08/07 03:26:44;;;;;;;;;;;14.70;99.90;;;;;;5016885;28;19917;-72
2021/08/07 03:29:16;;;;;;;;;;;14.70;99.90;;;;;;5032588;28;19952;-71
2021/08/07 03:31:42;;;;;;;;;;;14.60;99.90;;;;;;5016294;28;19917;-71
2021/08/07 03:34:08;;;;;;;;;;;14.60;99.90;;;;;;5015882;28;19917;-71
2021/08/07 03:36:36;;;;;;;;;;;14.60;99.90;;;;;;5032433;28;20332;-72
2021/08/07 03:39:04;;;;;;;;;;;14.60;99.90;;;;;;5032420;28;19974;-71
2021/08/07 03:41:30;;;;;;;;;;;14.60;99.90;;;;;;5032155;28;19924;-71
2021/08/07 03:43:56;;;;;;;;;;;14.60;99.90;;;;;;5032373;28;19917;-71
2021/08/07 03:46:23;;;;;;;;;;;14.60;99.90;;;;;;5015856;28;19928;-71
2021/08/07 03:48:50;;;;;;;;;;;14.60;99.90;;;;;;5031913;28;19952;-72
2021/08/07 03:51:16;;;;;;;;;;;14.60;99.90;;;;;;5015872;28;19917;-71
2021/08/07 03:53:46;;;;;;;;;;;14.60;99.90;;;;;;5032919;28;19917;-72
2021/08/07 03:56:17;;;;;;;;;;;14.60;99.90;;;;;;5032228;28;20008;-72
2021/08/07 03:58:42;;;;;;;;;;;14.60;99.90;;;;;;5032800;28;19945;-71
2021/08/07 04:01:15;;;;;;;;;;;14.70;99.90;;;;;;5031317;28;19913;-71
2021/08/07 04:03:41;;;;;;;;;;;14.60;99.90;;;;;;5032164;28;19932;-71
2021/08/07 04:06:07;;;;;;;;;;;14.70;99.90;;;;;;5031651;28;19913;-71
2021/08/07 04:08:35;;;;;;;;;;;14.60;99.90;;;;;;5031546;28;19928;-71
2021/08/07 04:11:01;;;;;;;;;;;14.60;99.90;;;;;;5032005;28;19917;-72
2021/08/07 04:13:32;;;;;;;;;;;14.60;99.90;;;;;;5031564;28;19940;-72
2021/08/07 04:16:02;;;;;;;;;;;14.60;99.90;;;;;;5031758;28;19974;-72
2021/08/07 04:18:28;;;;;;;;;;;14.60;99.90;;;;;;5031063;28;19929;-73
2021/08/07 04:20:54;;;;;;;;;;;14.70;99.90;;;;;;5031798;28;19921;-72
2021/08/07 04:23:22;;;;;;;;;;;14.70;99.90;;;;;;5031751;28;19921;-71
2021/08/07 04:25:47;;;;;;;;;;;14.70;99.90;;;;;;5031257;28;19924;-72
2021/08/07 04:28:13;;;;;;;;;;;14.80;99.90;;;;;;5031160;28;19968;-72
2021/08/07 04:30:42;;;;;;;;;;;14.80;99.90;;;;;;5031105;28;19917;-72
2021/08/07 04:33:08;;;;;;;;;;;14.80;99.90;;;;;;5015078;28;19921;-71
2021/08/07 04:35:39;;;;;;;;;;;14.80;99.90;;;;;;5030902;28;20381;-71
2021/08/07 04:38:07;;;;;;;;;;;14.80;99.90;;;;;;5031301;28;19967;-72
2021/08/07 04:40:36;;;;;;;;;;;14.80;99.90;;;;;;5031348;28;20381;-70
2021/08/07 04:43:07;;;;;;;;;;;14.90;99.90;;;;;;5031110;28;19963;-72
2021/08/07 04:45:34;;;;;;;;;;;14.90;99.90;;;;;;5031279;28;19967;-71
2021/08/07 04:48:00;;;;;;;;;;;15.00;99.90;;;;;;5031880;28;19921;-72
2021/08/07 04:50:34;;;;;;;;;;;15.00;99.90;;;;;;5031748;28;19921;-72
2021/08/07 04:53:02;;;;;;;;;;;15.10;99.90;;;;;;5033534;28;19916;-71
2021/08/07 04:55:28;;;;;;;;;;;15.20;99.90;;;;;;5032439;28;20358;-73
2021/08/07 04:57:53;;;;;;;;;;;15.20;99.90;;;;;;5032694;28;19921;-73
2021/08/07 05:00:21;;;;;;;;;;;15.30;99.90;;;;;;5000283;28;19917;-72
2021/08/07 05:02:47;;;;;;;;;;;15.30;99.90;;;;;;5033280;28;20051;-72
2021/08/07 05:05:14;;;;;;;;;;;15.40;99.90;;;;;;5031272;28;19921;-70
2021/08/07 05:07:40;;;;;;;;;;;15.50;99.90;;;;;;5030040;28;19966;-72
2021/08/07 05:10:07;;;;;;;;;;;15.50;99.90;;;;;;5030901;28;20009;-72
2021/08/07 05:12:33;;;;;;;;;;;15.50;99.90;;;;;;5030524;28;19921;-70
2021/08/07 05:14:59;;;;;;;;;;;15.60;99.90;;;;;;5030311;28;20479;-71
2021/08/07 05:17:26;;;;;;;;;;;15.70;99.90;;;;;;5030024;28;19989;-72
2021/08/07 05:19:52;;;;;;;;;;;15.70;99.90;;;;;;5030319;28;20008;-72
2021/08/07 05:22:19;;;;;;;;;;;15.80;99.90;;;;;;5030561;28;20267;-72
2021/08/07 05:24:49;;;;;;;;;;;15.90;99.90;;;;;;5030675;28;19967;-73
2021/08/07 05:27:15;;;;;;;;;;;15.90;99.90;;;;;;5013453;28;19932;-73
2021/08/07 05:29:41;;;;;;;;;;;16.00;99.90;;;;;;5030560;28;19917;-73
2021/08/07 05:32:07;;;;;;;;;;;16.10;99.90;;;;;;5013893;28;19919;-73
2021/08/07 05:34:33;;;;;;;;;;;16.20;99.90;;;;;;5014058;28;20377;-73
2021/08/07 05:36:59;;;;;;;;;;;16.30;99.90;;;;;;5030268;28;19917;-73
2021/08/07 05:39:25;;;;;;;;;;;16.40;99.90;;;;;;5030148;28;19964;-73
2021/08/07 05:41:50;;;;;;;;;;;16.50;99.90;;;;;;5030560;28;19924;-73
2021/08/07 05:44:17;;;;;;;;;;;16.60;99.90;;;;;;5013898;28;19917;-74
2021/08/07 05:46:42;;;;;;;;;;;16.80;99.90;;;;;;5029838;28;19971;-74
2021/08/07 05:49:08;;;;;;;;;;;17.10;99.90;;;;;;5030339;28;19917;-74
2021/08/07 05:51:35;;;;;;;;;;;17.50;99.90;;;;;;5013384;28;19924;-75
2021/08/07 05:54:02;;;;;;;;;;;18.00;99.90;;;;;;5013806;28;19924;-73
2021/08/07 05:56:28;;;;;;;;;;;18.30;99.90;;;;;;5030126;28;19925;-74
2021/08/07 05:58:54;;;;;;;;;;;18.50;99.90;;;;;;5029248;28;19917;-72
2021/08/07 06:01:20;;;;;;;;;;;18.40;99.90;;;;;;5030008;28;19987;-74
2021/08/07 06:03:46;;;;;;;;;;;19.10;99.90;;;;;;5029970;28;19956;-74
2021/08/07 06:06:12;;;;;;;;;;;18.50;99.90;;;;;;5029346;28;20301;-76
2021/08/07 06:08:38;;;;;;;;;;;18.50;99.90;;;;;;5029638;28;19928;-74
2021/08/07 06:11:05;;;;;;;;;;;18.50;99.90;;;;;;5029597;28;19917;-75
2021/08/07 06:13:31;;;;;;;;;;;18.50;99.90;;;;;;5031118;28;19924;-75
2021/08/07 06:15:56;;;;;;;;;;;18.40;99.90;;;;;;5013330;28;19953;-74
2021/08/07 06:18:22;;;;;;;;;;;18.50;99.90;;;;;;5029164;28;19918;-74
2021/08/07 06:20:48;;;;;;;;;;;18.50;99.90;;;;;;5013516;28;20273;-73
2021/08/07 06:23:15;;;;;;;;;;;18.80;99.90;;;;;;5029839;28;19925;-73
2021/08/07 06:25:41;;;;;;;;;;;18.90;99.90;;;;;;5033718;28;19917;-75
2021/08/07 06:28:07;;;;;;;;;;;18.90;99.90;;;;;;5034519;28;19971;-74
2021/08/07 06:30:33;;;;;;;;;;;18.80;99.90;;;;;;5033184;28;19928;-74
2021/08/07 06:33:03;;;;;;;;;;;18.70;99.90;;;;;;5033508;28;19921;-75
2021/08/07 06:35:29;;;;;;;;;;;18.70;99.90;;;;;;5033389;28;20039;-74
2021/08/07 06:37:55;;;;;;;;;;;19.00;99.90;;;;;;5016576;28;19945;-74
2021/08/07 06:40:22;;;;;;;;;;;19.30;99.90;;;;;;5017251;28;19923;-75
2021/08/07 06:42:48;;;;;;;;;;;19.70;99.90;;;;;;5034199;28;20374;-73
2021/08/07 06:45:33;;;;;;;;;;;20.10;99.90;;;;;;5019654;28;19928;-74
2021/08/07 06:48:03;;;;;;;;;;;20.60;99.90;;;;;;5032535;28;19925;-75
2021/08/07 06:50:29;;;;;;;;;;;20.50;99.90;;;;;;5033237;28;19940;-73
2021/08/07 06:52:55;;;;;;;;;;;20.30;99.50;;;;;;5032867;28;19924;-72
2021/08/07 06:55:21;;;;;;;;;;;20.20;99.70;;;;;;5029894;22;19929;-63
2021/08/07 06:57:47;;;;;;;;;;;20.30;99.90;;;;;;5033028;28;19917;-63
2021/08/07 07:00:13;;;;;;;;;;;20.30;99.90;;;;;;5049188;28;20391;-63
2021/08/07 07:02:41;;;;;;;;;;;20.20;99.60;;;;;;5016692;28;19921;-62
2021/08/07 07:05:06;;;;;;;;;;;20.10;99.50;;;;;;5025429;28;19918;-62
2021/08/07 07:07:33;;;;;;;;;;;19.80;99.30;;;;;;5028904;28;20423;-62
2021/08/07 07:09:58;;;;;;;;;;;19.50;99.10;;;;;;5012970;28;20198;-62
2021/08/07 07:12:24;;;;;;;;;;;19.30;99.60;;;;;;5013885;28;19917;-62
2021/08/07 07:14:49;;;;;;;;;;;19.10;99.90;;;;;;5014231;28;20439;-62
2021/08/07 07:17:17;;;;;;;;;;;18.90;99.90;;;;;;5012586;28;19971;-62
2021/08/07 07:19:42;;;;;;;;;;;18.80;99.90;;;;;;5012423;28;19917;-62
2021/08/07 07:22:08;;;;;;;;;;;18.90;99.90;;;;;;5029298;28;20366;-62
2021/08/07 07:24:39;;;;;;;;;;;19.00;99.90;;;;;;4996495;28;20289;-60
2021/08/07 07:27:05;;;;;;;;;;;19.00;99.90;;;;;;5028689;28;19963;-61
2021/08/07 07:29:30;;;;;;;;;;;19.00;99.90;;;;;;5012682;28;19957;-61
2021/08/07 07:31:57;;;;;;;;;;;18.90;99.90;;;;;;5028696;28;19924;-61
2021/08/07 07:34:23;;;;;;;;;;;18.90;99.90;;;;;;5028712;28;19918;-62
2021/08/07 07:36:49;;;;;;;;;;;18.70;99.90;;;;;;5028761;28;19959;-61
2021/08/07 07:39:14;;;;;;;;;;;18.60;99.90;;;;;;5028681;28;19948;-61
2021/08/07 07:41:41;;;;;;;;;;;18.60;99.90;;;;;;5028960;28;19952;-62
2021/08/07 07:44:08;;;;;;;;;;;18.60;99.90;;;;;;5012523;28;19918;-62
2021/08/07 07:46:33;;;;;;;;;;;18.60;99.90;;;;;;5011864;28;20396;-61
2021/08/07 07:49:00;;;;;;;;;;;18.60;99.90;;;;;;5012311;28;19944;-62
2021/08/07 07:51:26;;;;;;;;;;;18.50;99.90;;;;;;5013172;28;20387;-62
2021/08/07 07:53:53;;;;;;;;;;;18.80;99.90;;;;;;4996195;28;19917;-60
2021/08/07 07:56:20;;;;;;;;;;;19.20;99.90;;;;;;5028376;28;20404;-60
2021/08/07 07:58:46;;;;;;;;;;;19.30;99.90;;;;;;5012698;28;19917;-60
2021/08/07 08:01:11;;;;;;;;;;;19.30;99.90;;;;;;5028712;28;19924;-60
2021/08/07 08:03:37;;;;;;;;;;;19.20;99.90;;;;;;5028508;28;19921;-60
2021/08/07 08:06:05;;;;;;;;;;;19.20;99.90;;;;;;5027976;28;20339;-61
2021/08/07 08:08:31;;;;;;;;;;;19.20;99.90;;;;;;5028125;28;19928;-61
2021/08/07 08:10:56;;;;;;;;;;;19.30;99.90;;;;;;5012977;28;20298;-62
2021/08/07 08:13:23;;;;;;;;;;;19.50;99.90;;;;;;5011792;28;19914;-62
2021/08/07 08:15:51;;;;;;;;;;;20.40;99.90;;;;;;5011771;28;19944;-62
2021/08/07 08:18:19;;;;;;;;;;;21.30;99.90;;;;;;4995079;28;19917;-62
2021/08/07 08:20:44;;;;;;;;;;;21.40;99.90;;;;;;5013003;28;20309;-61
2021/08/07 08:23:11;;;;;;;;;;;21.20;99.90;;;;;;5027551;28;19976;-62
2021/08/07 08:25:36;;;;;;;;;;;21.20;99.90;;;;;;5012793;28;19971;-61
2021/08/07 08:28:06;;;;;;;;;;;22.00;99.90;;;;;;5011199;28;20293;-61
2021/08/07 08:30:33;;;;;;;;;;;22.60;99.90;;;;;;5011097;28;19925;-61
2021/08/07 08:33:00;;;;;;;;;;;22.80;99.80;;;;;;4995231;28;20377;-61
2021/08/07 08:35:25;;;;;;;;;;;22.90;99.70;;;;;;5027503;28;19921;-62
2021/08/07 08:37:51;;;;;;;;;;;24.20;99.90;;;;;;5027659;28;20528;-62
2021/08/07 08:40:17;;;;;;;;;;;26.50;99.90;;;;;;5011471;28;19959;-60
2021/08/07 08:42:44;;;;;;;;;;;28.60;99.90;;;;;;5011050;28;19925;-61
2021/08/07 08:45:10;;;;;;;;;;;28.90;98.80;;;;;;5027738;28;20271;-60
2021/08/07 08:47:39;;;;;;;;;;;29.10;97.30;;;;;;5026922;28;20273;-61
2021/08/07 08:50:06;;;;;;;;;;;28.90;96.70;;;;;;5027350;28;19983;-61
2021/08/07 08:52:32;;;;;;;;;;;28.20;95.60;;;;;;5027607;28;19917;-61
2021/08/07 08:54:59;;;;;;;;;;;27.30;95.70;;;;;;5027122;28;20436;-61
2021/08/07 08:57:24;;;;;;;;;;;26.60;97.00;;;;;;5012253;28;19957;-61
2021/08/07 08:59:52;;;;;;;;;;;26.30;97.50;;;;;;5027486;28;20381;-62
2021/08/07 09:02:18;;;;;;;;;;;26.10;97.90;;;;;;5027146;28;19921;-60
2021/08/07 09:04:44;;;;;;;;;;;25.90;98.10;;;;;;5010980;28;19917;-61
2021/08/07 09:07:12;;;;;;;;;;;25.60;97.80;;;;;;5026641;28;19921;-61
2021/08/07 09:09:39;;;;;;;;;;;25.20;97.90;;;;;;5012248;28;19918;-60
2021/08/07 09:12:09;;;;;;;;;;;25.00;99.00;;;;;;5027579;28;20381;-60
2021/08/07 09:14:36;;;;;;;;;;;25.00;98.60;;;;;;5010354;28;19924;-60
2021/08/07 09:17:13;;;;;;;;;;;24.70;98.40;;;;;;5026855;28;20262;-60
2021/08/07 09:19:43;;;;;;;;;;;24.60;98.90;;;;;;5026824;28;19971;-61
2021/08/07 09:22:17;;;;;;;;;;;24.60;99.40;;;;;;5010697;28;19925;-61
2021/08/07 09:24:56;;;;;;;;;;;24.90;99.90;;;;;;5010355;28;20011;-61
2021/08/07 09:27:37;;;;;;;;;;;24.90;99.50;;;;;;5026500;28;20488;-61
2021/08/07 09:30:25;;;;;;;;;;;24.80;99.00;;;;;;5026648;28;20431;-62
2021/08/07 09:32:58;;;;;;;;;;;25.30;99.90;;;;;;5026468;28;19972;-62
2021/08/07 09:35:26;;;;;;;;;;;28.10;99.90;;;;;;5010458;28;20266;-66
2021/08/07 09:38:11;;;;;;;;;;;30.80;99.90;;;;;;5026644;28;20514;-64
2021/08/07 09:40:44;;;;;;;;;;;32.90;99.90;;;;;;5010048;28;20459;-64
2021/08/07 09:43:10;;;;;;;;;;;33.10;99.90;;;;;;5026526;28;19922;-64
2021/08/07 09:45:37;;;;;;;;;;;33.80;97.80;;;;;;5011152;28;19953;-64
2021/08/07 09:48:07;;;;;;;;;;;34.20;98.50;;;;;;5026410;28;20344;-64
2021/08/07 09:50:34;;;;;;;;;;;35.20;98.60;;;;;;5011491;28;19921;-64
2021/08/07 09:53:03;;;;;;;;;;;35.50;95.90;;;;;;5009521;28;19968;-64
2021/08/07 09:55:30;;;;;;;;;;;35.20;97.70;;;;;;5011307;28;20389;-65
2021/08/07 09:58:00;;;;;;;;;;;35.90;99.20;;;;;;5026053;28;20112;-63
2021/08/07 10:00:35;;;;;;;;;;;37.00;98.10;;;;;;4997825;28;19940;-63
2021/08/07 10:03:16;;;;;;;;;;;37.30;95.50;;;;;;5013977;28;19917;-62
2021/08/07 10:05:43;;;;;;;;;;;36.80;95.10;;;;;;5030812;28;19924;-63
2021/08/07 10:08:10;;;;;;;;;;;35.70;93.40;;;;;;5013622;28;19928;-63
2021/08/07 10:10:40;;;;;;;;;;;34.10;92.90;;;;;;5030707;28;20290;-62
2021/08/07 10:13:08;;;;;;;;;;;32.40;93.20;;;;;;4997907;28;20374;-63
2021/08/07 10:15:44;;;;;;;;;;;31.30;94.90;;;;;;5029987;28;20373;-62
2021/08/07 10:18:10;;;;;;;;;;;31.30;99.00;;;;;;5013816;28;19929;-63
2021/08/07 10:20:38;;;;;;;;;;;32.40;99.90;;;;;;5030278;28;19924;-62
2021/08/07 10:23:05;;;;;;;;;;;32.80;97.60;;;;;;5030383;28;19917;-62
2021/08/07 10:25:31;;;;;;;;;;;34.10;99.90;;;;;;5030283;28;20293;-63
2021/08/07 10:27:59;;;;;;;;;;;36.20;99.90;;;;;;5012901;28;19948;-63
2021/08/07 10:30:28;;;;;;;;;;;38.00;99.70;;;;;;5030352;28;19967;-63
2021/08/07 10:32:55;;;;;;;;;;;39.30;96.60;;;;;;5014769;28;19959;-62
2021/08/07 10:35:22;;;;;;;;;;;38.40;91.80;;;;;;5013610;28;19925;-63
2021/08/07 10:37:48;;;;;;;;;;;36.30;91.40;;;;;;5029780;28;19917;-62
2021/08/07 10:40:14;;;;;;;;;;;34.10;91.40;;;;;;5029650;28;19924;-62
2021/08/07 10:42:43;;;;;;;;;;;32.20;92.60;;;;;;5030071;28;19924;-62
2021/08/07 10:45:09;;;;;;;;;;;30.70;95.70;;;;;;5029639;28;19927;-62
2021/08/07 10:47:39;;;;;;;;;;;30.30;95.60;;;;;;5013154;28;19971;-62
2021/08/07 10:50:28;;;;;;;;;;;29.60;95.50;;;;;;5029542;28;20301;-62
2021/08/07 10:52:58;;;;;;;;;;;30.40;99.90;;;;;;4997546;28;20285;-63
2021/08/07 10:55:43;;;;;;;;;;;33.20;99.90;;;;;;5014166;28;19922;-63
2021/08/07 10:58:27;;;;;;;;;;;34.50;99.90;;;;;;5014398;28;19971;-63
2021/08/07 11:00:52;;;;;;;;;;;36.20;99.90;;;;;;5014385;28;20087;-63
2021/08/07 11:03:18;;;;;;;;;;;37.20;96.40;;;;;;5014563;28;19949;-63
2021/08/07 11:05:50;;;;;;;;;;;37.80;96.30;;;;;;5013912;28;19913;-63
2021/08/07 11:08:16;;;;;;;;;;;38.30;93.90;;;;;;5014042;28;19922;-63
2021/08/07 11:10:42;;;;;;;;;;;37.50;93.10;;;;;;5013944;28;19923;-63
2021/08/07 11:13:20;;;;;;;;;;;38.20;95.30;;;;;;5013940;28;20012;-62
2021/08/07 11:15:46;;;;;;;;;;;39.50;92.70;;;;;;5014318;28;20012;-63
2021/08/07 11:18:24;;;;;;;;;;;39.70;93.00;;;;;;5013642;28;20020;-63
2021/08/07 11:20:50;;;;;;;;;;;38.80;86.50;;;;;;5014136;28;19922;-62
2021/08/07 11:23:16;;;;;;;;;;;36.50;88.30;;;;;;5013525;28;19997;-62
2021/08/07 11:25:46;;;;;;;;;;;35.40;91.00;;;;;;5013833;28;19921;-62
2021/08/07 11:28:11;;;;;;;;;;;35.10;91.60;;;;;;5013689;28;19971;-62
2021/08/07 11:30:41;;;;;;;;;;;34.00;90.10;;;;;;5013725;28;19925;-62
2021/08/07 11:33:15;;;;;;;;;;;32.50;90.50;;;;;;5014063;28;19917;-62
2021/08/07 11:35:42;;;;;;;;;;;31.00;91.50;;;;;;5013159;28;20004;-62
2021/08/07 11:38:14;;;;;;;;;;;30.40;91.90;;;;;;5013844;28;20374;-61
2021/08/07 11:40:40;;;;;;;;;;;29.60;91.60;;;;;;5013289;28;19949;-61
2021/08/07 11:43:11;;;;;;;;;;;29.20;93.10;;;;;;5013820;28;19921;-61
2021/08/07 11:45:38;;;;;;;;;;;29.20;92.80;;;;;;5013858;28;20401;-62
2021/08/07 11:48:03;;;;;;;;;;;29.60;94.60;;;;;;5012750;28;19933;-61
2021/08/07 11:50:29;;;;;;;;;;;31.70;98.50;;;;;;5013566;28;19921;-62
2021/08/07 11:52:54;;;;;;;;;;;33.70;96.00;;;;;;5012130;28;20004;-62
2021/08/07 11:55:20;;;;;;;;;;;35.00;93.00;;;;;;5013033;28;19971;-61
2021/08/07 11:57:46;;;;;;;;;;;35.10;92.50;;;;;;5013327;28;20012;-61
2021/08/07 12:00:18;;;;;;;;;;;34.50;91.20;;;;;;5013224;28;19918;-61
2021/08/07 12:02:54;;;;;;;;;;;33.00;90.40;;;;;;5012436;28;19941;-61
2021/08/07 12:05:19;;;;;;;;;;;31.00;90.00;;;;;;5014665;28;19928;-62
2021/08/07 12:07:56;;;;;;;;;;;30.50;90.50;;;;;;5027993;28;19921;-61
2021/08/07 12:10:22;;;;;;;;;;;29.40;90.30;;;;;;5018649;28;19917;-61
2021/08/07 12:12:48;;;;;;;;;;;28.20;91.40;;;;;;5023436;28;19940;-61
2021/08/07 12:15:13;;;;;;;;;;;27.10;92.60;;;;;;5011932;28;19917;-61
2021/08/07 12:17:49;;;;;;;;;;;26.90;93.00;;;;;;5012547;28;19921;-62
2021/08/07 12:20:15;;;;;;;;;;;26.60;93.60;;;;;;5011980;28;19918;-61
2021/08/07 12:23:00;;;;;;;;;;;26.10;93.60;;;;;;5011041;28;20010;-61
2021/08/07 12:25:26;;;;;;;;;;;25.50;93.50;;;;;;5032038;28;19917;-61
2021/08/07 12:28:04;;;;;;;;;;;25.30;94.30;;;;;;5029867;28;19917;-61
2021/08/07 12:30:30;;;;;;;;;;;25.20;93.90;;;;;;5000488;28;19921;-62
2021/08/07 12:33:15;;;;;;;;;;;25.00;93.90;;;;;;5024483;28;20429;-62
2021/08/07 12:35:40;;;;;;;;;;;24.90;94.70;;;;;;5025880;28;19924;-62
2021/08/07 12:38:16;;;;;;;;;;;24.90;95.00;;;;;;5030184;28;19918;-61
2021/08/07 12:40:43;;;;;;;;;;;24.80;94.90;;;;;;5026875;28;19917;-62
2021/08/07 12:43:08;;;;;;;;;;;24.80;95.20;;;;;;5020752;28;20373;-62
2021/08/07 12:45:34;;;;;;;;;;;24.70;95.00;;;;;;5020559;28;20016;-62
2021/08/07 12:48:00;;;;;;;;;;;24.60;95.10;;;;;;5028972;28;19921;-62
2021/08/07 12:50:26;;;;;;;;;;;24.40;95.00;;;;;;5015650;28;19963;-61
2021/08/07 12:52:53;;;;;;;;;;;24.10;94.50;;;;;;5024356;28;19917;-61
2021/08/07 12:55:20;;;;;;;;;;;23.80;94.90;;;;;;5046316;22;20321;-66
2021/08/07 13:05:02;;;;;;;;;;;22.80;94.60;;;;;;5026903;28;20403;-67
2021/08/07 13:07:28;;;;;;;;;;;22.70;94.80;;;;;;5036394;28;19925;-65
2021/08/07 13:09:54;;;;;;;;;;;22.40;94.60;;;;;;5045877;28;19992;-66
2021/08/07 13:12:21;;;;;;;;;;;22.20;95.30;;;;;;5031995;28;27063;-66
2021/08/07 13:14:56;;;;;;;;;;;22.10;96.30;;;;;;5041898;28;19917;-66
2021/08/07 13:17:50;;;;;;;;;;;22.10;96.50;;;;;;5040463;28;19932;-65
2021/08/07 13:20:36;;;;;;;;;;;22.20;96.60;;;;;;5027752;28;19921;-66
2021/08/07 13:23:02;;;;;;;;;;;22.30;96.40;;;;;;5041901;28;19928;-66
2021/08/07 13:25:27;;;;;;;;;;;22.30;96.50;;;;;;5028455;28;19921;-66
2021/08/07 13:27:55;;;;;;;;;;;22.30;96.70;;;;;;5028850;28;19921;-65
2021/08/07 13:30:22;;;;;;;;;;;22.20;96.70;;;;;;5002036;28;20396;-66
2021/08/07 13:33:03;;;;;;;;;;;22.00;96.90;;;;;;5011313;28;20279;-66
2021/08/07 13:35:30;;;;;;;;;;;21.60;96.10;;;;;;5011494;28;19952;-69
2021/08/07 13:37:56;;;;;;;;;;;21.50;95.80;;;;;;5037782;28;19936;-67
2021/08/07 13:40:23;;;;;;;;;;;20.90;95.70;;;;;;5026411;28;19926;-68
2021/08/07 13:42:48;;;;;;;;;;;20.40;96.10;;;;;;5024853;28;19917;-70
2021/08/07 13:45:14;;;;;;;;;;;20.00;97.60;;;;;;5024247;28;20385;-69
2021/08/07 13:47:40;;;;;;;;;;;19.90;97.90;;;;;;5017394;28;20304;-68
2021/08/07 13:50:06;;;;;;;;;;;20.00;98.30;;;;;;5027439;28;20012;-66
2021/08/07 13:52:31;;;;;;;;;;;20.00;98.70;;;;;;5015696;28;19921;-69
2021/08/07 13:54:57;;;;;;;;;;;20.40;99.20;;;;;;5022943;28;19917;-68
2021/08/07 13:57:24;;;;;;;;;;;20.40;99.40;;;;;;5022345;28;19921;-70
2021/08/07 13:59:50;;;;;;;;;;;20.70;99.60;;;;;;5016707;28;19976;-71
2021/08/07 14:02:15;;;;;;;;;;;20.90;99.70;;;;;;5014298;28;19918;-70
2021/08/07 14:04:41;;;;;;;;;;;21.10;99.60;;;;;;5021935;28;19943;-71
2021/08/07 14:07:07;;;;;;;;;;;21.40;99.40;;;;;;5011132;28;19956;-73
2021/08/07 14:09:33;;;;;;;;;;;21.60;99.50;;;;;;5009916;28;19918;-72
2021/08/07 14:11:58;;;;;;;;;;;21.70;99.20;;;;;;5010174;28;19967;-70
2021/08/07 14:14:24;;;;;;;;;;;21.70;98.80;;;;;;5010116;28;19944;-72
2021/08/07 14:16:50;;;;;;;;;;;21.60;98.30;;;;;;5010752;28;20008;-73
2021/08/07 14:19:17;;;;;;;;;;;21.60;98.50;;;;;;5011574;28;19917;-71
2021/08/07 14:21:46;;;;;;;;;;;21.60;98.90;;;;;;5011002;28;20335;-71
2021/08/07 14:24:14;;;;;;;;;;;21.80;99.30;;;;;;5010181;28;20362;-71
2021/08/07 14:26:40;;;;;;;;;;;22.00;99.20;;;;;;5030887;28;19928;-72
2021/08/07 14:29:06;;;;;;;;;;;22.10;99.30;;;;;;5029297;28;19921;-71